首页
METAR-TAF:

METAR-TAF

机场 :

彭巴, 莫桑比克

纬度: 12-59S, 经度: 040-32E, 海拔: 101米

当前天气观测

该预报发布于34分钟前的17:00 UTC
风速10节,风向
温度 25°C
湿度 79%
气压 1018 hPa
能见度10公里或以上
少量云层高于2000英尺
散云层高于10000英尺

METAR: FQPB 151700Z 17010KT 9999 FEW020 SCT100 25/21 Q1018

时间: 19:34 (17:34 UTC)

预报

该预报发布于7小时和34分钟前的10:00 UTC
预报有效从15日的 12点(UTC)到 16日的 12点(UTC)
风速15节,风向南转南东
能见度10公里或以上
散云层高于2000英尺
成为
从 16日的 01点(UTC)到 16日的 03点(UTC)
风速5节,风向西南

TAF: FQPB 151000Z 1512/1612 16015KT 9999 SCT020 TX29/1513Z TN22/1602Z BECMG 1601/1603 23005KT

超过4000个机场的气象观测和天气预报(METAR&TAF报告)。

可查询的气象台以黄色和红色小点在地图上表示。

将鼠标移到小点上方,可查看气象台名称。

然后点击查看天气观测和预报。

如需切换地图:点击带黑十字的绿色按钮放大地图;点击带横线的绿色按钮缩小地图;或者点击绿色箭头查看邻近地区的地图。


METAR-TAF: